Time;durP1;ratioP1;P1;durP2;ratioP2;P2;SDS_P1;SDS_P2;PMS_P1;PMS_P2;Temp;Humidity;BMP_temperature;BMP_pressure;BME280_temperature;BME280_humidity;BME280_pressure;Samples;Min_cycle;Max_cycle;Signal;HPM_P1;HPM_P2
2022/06/04 00:02:09;;;;;;;10.73;5.90;;;;;;;;;;5029961;28;20214;-75
2022/06/04 00:04:36;;;;;;;11.00;5.57;;;;;;;;;;5029429;28;20219;-74
2022/06/04 00:07:03;;;;;;;7.37;5.57;;;;;;;;;;5030181;28;20195;-74
2022/06/04 00:09:30;;;;;;;6.87;5.13;;;;;;;;;;5029971;28;20275;-74
2022/06/04 00:17:29;;;;;;;5.53;5.00;;;;;;;;;;5010464;28;20663;-74
2022/06/04 00:19:56;;;;;;;5.70;5.17;;;;;;;;;;5009998;28;20203;-74
2022/06/04 00:22:23;;;;;;;8.77;5.50;;;;;;;;;;5009887;28;20706;-75
2022/06/04 00:24:50;;;;;;;6.50;5.67;;;;;;;;;;5009395;28;20227;-74
2022/06/04 00:27:19;;;;;;;9.50;5.30;;;;;;;;;;5010208;28;20204;-74
2022/06/04 00:29:47;;;;;;;10.20;6.10;;;;;;;;;;5009965;28;20680;-74
2022/06/04 00:32:15;;;;;;;9.03;5.33;;;;;;;;;;5009771;28;20680;-74
2022/06/04 00:34:42;;;;;;;10.00;5.13;;;;;;;;;;5009519;28;20196;-74
2022/06/04 00:37:09;;;;;;;7.53;4.93;;;;;;;;;;5009706;28;20203;-74
2022/06/04 00:39:36;;;;;;;5.67;5.13;;;;;;;;;;5010142;28;20747;-74
2022/06/04 00:42:07;;;;;;;8.10;6.57;;;;;;;;;;5009355;28;20622;-74
2022/06/04 00:45:03;;;;;;;8.20;6.57;;;;;;;;;;5009760;28;20684;-74
2022/06/04 00:47:32;;;;;;;8.17;6.13;;;;;;;;;;5009956;28;20187;-74
2022/06/04 00:49:59;;;;;;;7.53;6.20;;;;;;;;;;5009607;28;20261;-74
2022/06/04 00:52:27;;;;;;;7.03;5.70;;;;;;;;;;5009326;28;20191;-75
2022/06/04 00:54:56;;;;;;;8.17;5.97;;;;;;;;;;5009535;28;20268;-74
2022/06/04 00:57:54;;;;;;;7.50;5.60;;;;;;;;;;5009727;28;20286;-74
2022/06/04 01:00:24;;;;;;;6.53;5.70;;;;;;;;;;5008464;28;20261;-74
2022/06/04 01:03:12;;;;;;;6.20;5.60;;;;;;;;;;5008255;28;20234;-74
2022/06/04 01:05:49;;;;;;;8.20;5.80;;;;;;;;;;5009473;28;20215;-74
2022/06/04 01:08:41;;;;;;;6.03;5.53;;;;;;;;;;5009857;28;20191;-74
2022/06/04 01:11:16;;;;;;;7.50;5.67;;;;;;;;;;5009194;28;20192;-74
2022/06/04 01:13:59;;;;;;;5.90;5.40;;;;;;;;;;5009614;28;20195;-74
2022/06/04 01:16:32;;;;;;;12.73;6.23;;;;;;;;;;5009013;28;20184;-74
2022/06/04 01:19:09;;;;;;;6.17;5.50;;;;;;;;;;5009224;28;20231;-74
2022/06/04 01:21:51;;;;;;;8.23;6.27;;;;;;;;;;5009255;28;20648;-74
2022/06/04 01:24:35;;;;;;;6.70;6.10;;;;;;;;;;5012908;28;20207;-74
2022/06/04 01:27:16;;;;;;;7.57;6.60;;;;;;;;;;5012745;28;20564;-74
2022/06/04 01:29:49;;;;;;;9.83;5.90;;;;;;;;;;5012645;28;20187;-74
2022/06/04 01:32:23;;;;;;;5.63;5.23;;;;;;;;;;5012965;28;20601;-75
2022/06/04 01:34:56;;;;;;;7.27;6.57;;;;;;;;;;5017636;28;20206;-74
2022/06/04 01:37:27;;;;;;;7.53;5.83;;;;;;;;;;5032642;28;20644;-74
2022/06/04 01:42:44;;;;;;;9.40;6.37;;;;;;;;;;5032047;28;20182;-73
2022/06/04 01:45:12;;;;;;;6.43;5.83;;;;;;;;;;5031941;28;20210;-74
2022/06/04 01:47:39;;;;;;;7.97;7.07;;;;;;;;;;5031732;28;20199;-74
2022/06/04 01:50:10;;;;;;;6.57;6.03;;;;;;;;;;5031981;28;20203;-74
2022/06/04 01:52:39;;;;;;;13.07;5.73;;;;;;;;;;5031892;28;20244;-74
2022/06/04 01:55:12;;;;;;;7.40;5.67;;;;;;;;;;5032015;28;20203;-74
2022/06/04 01:57:42;;;;;;;7.30;6.10;;;;;;;;;;5032109;28;20263;-75
2022/06/04 02:00:13;;;;;;;7.27;6.00;;;;;;;;;;5031926;28;20187;-74
2022/06/04 02:02:42;;;;;;;7.07;6.40;;;;;;;;;;5031873;28;20252;-74
2022/06/04 02:05:13;;;;;;;6.27;5.77;;;;;;;;;;5031513;28;20663;-74
2022/06/04 02:07:44;;;;;;;6.67;6.07;;;;;;;;;;5031813;28;20293;-74
2022/06/04 02:10:14;;;;;;;8.37;6.30;;;;;;;;;;5031544;28;20220;-74
2022/06/04 02:12:45;;;;;;;7.37;6.77;;;;;;;;;;5031661;28;20191;-74
2022/06/04 02:15:14;;;;;;;6.93;6.30;;;;;;;;;;5031694;28;20244;-74
2022/06/04 02:17:43;;;;;;;10.17;6.33;;;;;;;;;;5031765;28;20202;-74
2022/06/04 02:20:11;;;;;;;8.33;6.50;;;;;;;;;;5031571;28;20199;-74
2022/06/04 02:22:38;;;;;;;7.33;6.10;;;;;;;;;;5031755;28;20199;-74
2022/06/04 02:25:08;;;;;;;8.13;5.67;;;;;;;;;;5031227;28;20279;-74
2022/06/04 02:27:35;;;;;;;5.97;5.30;;;;;;;;;;5031757;28;20732;-74
2022/06/04 02:30:05;;;;;;;6.67;6.07;;;;;;;;;;5031528;28;20674;-74
2022/06/04 02:32:40;;;;;;;6.77;5.90;;;;;;;;;;5031391;28;20199;-73
2022/06/04 02:35:13;;;;;;;8.20;7.40;;;;;;;;;;5012436;28;20199;-75
2022/06/04 02:37:45;;;;;;;7.07;6.23;;;;;;;;;;5011493;28;20188;-76
2022/06/04 02:40:15;;;;;;;7.03;6.30;;;;;;;;;;5011312;28;20245;-75
2022/06/04 02:42:46;;;;;;;8.93;6.17;;;;;;;;;;5011454;28;20213;-75
2022/06/04 02:45:19;;;;;;;5.77;5.27;;;;;;;;;;5011344;28;20219;-76
2022/06/04 02:47:48;;;;;;;10.13;5.77;;;;;;;;;;5011125;28;20187;-75
2022/06/04 02:50:20;;;;;;;7.30;6.47;;;;;;;;;;5011588;28;20240;-75
2022/06/04 02:52:47;;;;;;;7.20;6.40;;;;;;;;;;5011130;28;20192;-75
2022/06/04 02:55:17;;;;;;;7.30;6.00;;;;;;;;;;5011120;28;20196;-75
2022/06/04 02:57:46;;;;;;;8.53;6.40;;;;;;;;;;5011048;28;20195;-76
2022/06/04 03:00:17;;;;;;;9.43;6.10;;;;;;;;;;5011022;28;20286;-75
2022/06/04 03:02:44;;;;;;;10.13;6.77;;;;;;;;;;5011149;28;20184;-76
2022/06/04 03:05:14;;;;;;;6.77;6.17;;;;;;;;;;5010483;28;20263;-75
2022/06/04 03:07:44;;;;;;;6.97;6.37;;;;;;;;;;5011274;28;20204;-75
2022/06/04 03:10:13;;;;;;;7.37;6.73;;;;;;;;;;5011162;28;20203;-75
2022/06/04 03:12:40;;;;;;;6.70;5.97;;;;;;;;;;5010866;28;20195;-75
2022/06/04 03:15:09;;;;;;;8.93;6.80;;;;;;;;;;5010605;28;20683;-75
2022/06/04 03:17:37;;;;;;;7.87;6.33;;;;;;;;;;5011002;28;20703;-75
2022/06/04 03:20:07;;;;;;;7.00;6.33;;;;;;;;;;5010866;28;20260;-75
2022/06/04 03:22:34;;;;;;;6.53;5.93;;;;;;;;;;5010546;28;20203;-75
2022/06/04 03:25:01;;;;;;;7.37;6.77;;;;;;;;;;5010843;28;20759;-76
2022/06/04 03:27:28;;;;;;;8.20;6.80;;;;;;;;;;5010879;28;20204;-76
2022/06/04 03:29:55;;;;;;;9.00;6.33;;;;;;;;;;5010462;28;20309;-76
2022/06/04 03:32:22;;;;;;;6.90;6.20;;;;;;;;;;5010511;28;20199;-76
2022/06/04 03:34:51;;;;;;;8.20;6.77;;;;;;;;;;5010443;28;20632;-75
2022/06/04 03:37:18;;;;;;;9.70;7.57;;;;;;;;;;5010244;28;20196;-76
2022/06/04 03:39:45;;;;;;;6.73;6.03;;;;;;;;;;5010557;28;20196;-76
2022/06/04 03:42:12;;;;;;;8.27;6.40;;;;;;;;;;5010796;28;20204;-75
2022/06/04 03:44:40;;;;;;;7.90;6.50;;;;;;;;;;5009639;28;20231;-76
2022/06/04 03:47:07;;;;;;;6.83;6.17;;;;;;;;;;5010072;28;20206;-76
2022/06/04 03:49:34;;;;;;;6.43;5.83;;;;;;;;;;5009923;28;20207;-76
2022/06/04 03:52:02;;;;;;;6.83;6.20;;;;;;;;;;5010096;28;20243;-76
2022/06/04 03:59:55;;;;;;;7.27;6.20;;;;;;;;;;5009823;28;20191;-75
2022/06/04 04:02:22;;;;;;;7.17;6.40;;;;;;;;;;5010539;28;20208;-75
2022/06/04 04:04:49;;;;;;;13.63;6.83;;;;;;;;;;5009582;28;20587;-74
2022/06/04 04:07:17;;;;;;;6.97;6.07;;;;;;;;;;5010182;28;20237;-75
2022/06/04 04:09:44;;;;;;;8.03;6.83;;;;;;;;;;5010192;28;20204;-75
2022/06/04 04:12:11;;;;;;;7.57;7.00;;;;;;;;;;5010209;28;20256;-75
2022/06/04 04:14:38;;;;;;;7.30;6.57;;;;;;;;;;5009994;28;20203;-75
2022/06/04 04:17:05;;;;;;;8.17;5.80;;;;;;;;;;5010068;28;20252;-75
2022/06/04 04:19:32;;;;;;;9.90;6.17;;;;;;;;;;5010093;28;20238;-75
2022/06/04 04:21:59;;;;;;;6.57;5.80;;;;;;;;;;5010114;28;20203;-75
2022/06/04 04:24:28;;;;;;;6.07;5.57;;;;;;;;;;5009892;28;20664;-75
2022/06/04 04:26:55;;;;;;;6.40;5.80;;;;;;;;;;5009790;28;20642;-75
2022/06/04 04:29:22;;;;;;;7.80;6.70;;;;;;;;;;5009679;28;20203;-75
2022/06/04 04:31:49;;;;;;;7.07;6.43;;;;;;;;;;5009878;28;20195;-75
2022/06/04 04:34:16;;;;;;;8.70;5.73;;;;;;;;;;5009562;28;20225;-75
2022/06/04 04:36:45;;;;;;;8.50;5.60;;;;;;;;;;5008592;28;20195;-75
2022/06/04 04:39:12;;;;;;;10.43;6.23;;;;;;;;;;5009828;28;20238;-75
2022/06/04 04:41:40;;;;;;;10.70;6.77;;;;;;;;;;5009284;28;20252;-75
2022/06/04 04:44:07;;;;;;;7.30;6.17;;;;;;;;;;5009624;28;20200;-76
2022/06/04 04:46:35;;;;;;;9.80;6.73;;;;;;;;;;5011192;28;20764;-75
2022/06/04 04:49:02;;;;;;;6.13;5.60;;;;;;;;;;5020367;28;20207;-75
2022/06/04 04:51:31;;;;;;;7.83;5.73;;;;;;;;;;5025565;28;20234;-76
2022/06/04 04:53:58;;;;;;;12.87;5.57;;;;;;;;;;5009240;28;20204;-75
2022/06/04 04:56:26;;;;;;;7.63;6.43;;;;;;;;;;5020578;28;20199;-75
2022/06/04 04:58:54;;;;;;;5.67;5.17;;;;;;;;;;5009980;28;20203;-76
2022/06/04 05:01:23;;;;;;;8.30;5.97;;;;;;;;;;5009644;28;20236;-75
2022/06/04 05:03:50;;;;;;;6.30;5.80;;;;;;;;;;5009652;28;20206;-75
2022/06/04 05:06:19;;;;;;;9.90;5.83;;;;;;;;;;5013238;28;20290;-75
2022/06/04 05:08:47;;;;;;;7.17;5.73;;;;;;;;;;5019855;28;20191;-75
2022/06/04 05:11:18;;;;;;;11.23;5.47;;;;;;;;;;5017534;28;20733;-76
2022/06/04 05:13:49;;;;;;;8.67;5.73;;;;;;;;;;5009231;28;20644;-75
2022/06/04 05:16:18;;;;;;;7.00;5.97;;;;;;;;;;5009154;28;20188;-75
2022/06/04 05:18:45;;;;;;;5.70;5.10;;;;;;;;;;5009480;28;20225;-75
2022/06/04 05:21:19;;;;;;;7.63;5.67;;;;;;;;;;5009194;28;20203;-75
2022/06/04 05:23:46;;;;;;;6.63;6.03;;;;;;;;;;5009436;28;20188;-76
2022/06/04 05:26:13;;;;;;;6.20;5.60;;;;;;;;;;5009022;28;20726;-75
2022/06/04 05:28:40;;;;;;;8.13;6.00;;;;;;;;;;5009555;28;20203;-75
2022/06/04 05:31:07;;;;;;;6.73;5.47;;;;;;;;;;5008730;28;20202;-76
2022/06/04 05:33:35;;;;;;;7.27;5.73;;;;;;;;;;5009159;28;20229;-75
2022/06/04 05:36:04;;;;;;;6.00;5.50;;;;;;;;;;5009102;28;20256;-75
2022/06/04 05:38:34;;;;;;;6.60;6.00;;;;;;;;;;5008935;28;20261;-75
2022/06/04 05:41:02;;;;;;;10.03;5.73;;;;;;;;;;5009315;28;20570;-75
2022/06/04 05:43:29;;;;;;;13.27;6.00;;;;;;;;;;5008835;28;20623;-76
2022/06/04 05:46:00;;;;;;;6.37;5.50;;;;;;;;;;5008655;28;20227;-75
2022/06/04 05:48:27;;;;;;;7.67;5.03;;;;;;;;;;5008854;28;20252;-75
2022/06/04 05:50:56;;;;;;;9.37;5.87;;;;;;;;;;5008563;28;20296;-75
2022/06/04 05:53:23;;;;;;;14.63;6.07;;;;;;;;;;5008876;28;20206;-75
2022/06/04 05:55:51;;;;;;;5.80;5.20;;;;;;;;;;5008555;28;20256;-76
2022/06/04 05:58:18;;;;;;;6.63;5.27;;;;;;;;;;5008999;28;20210;-75
2022/06/04 06:00:45;;;;;;;6.70;6.00;;;;;;;;;;5019778;28;20275;-76
2022/06/04 06:03:12;;;;;;;6.57;5.83;;;;;;;;;;5028309;28;20264;-76
2022/06/04 06:05:42;;;;;;;8.57;5.50;;;;;;;;;;5027924;28;20222;-76
2022/06/04 06:08:11;;;;;;;6.83;5.60;;;;;;;;;;5025995;28;20207;-76
2022/06/04 06:10:42;;;;;;;7.80;4.60;;;;;;;;;;5011728;28;20200;-76
2022/06/04 06:13:09;;;;;;;8.37;4.67;;;;;;;;;;5011831;28;20199;-75
2022/06/04 06:15:36;;;;;;;5.77;4.37;;;;;;;;;;5011842;28;20242;-75
2022/06/04 06:18:03;;;;;;;6.27;4.50;;;;;;;;;;5014699;28;20216;-75
2022/06/04 06:20:31;;;;;;;4.87;4.37;;;;;;;;;;5012250;28;20203;-75
2022/06/04 06:22:59;;;;;;;4.90;4.40;;;;;;;;;;5012109;28;20248;-76
2022/06/04 06:25:28;;;;;;;7.37;5.30;;;;;;;;;;5011440;28;20741;-75
2022/06/04 06:27:55;;;;;;;9.07;4.90;;;;;;;;;;5012104;28;20256;-75
2022/06/04 06:30:22;;;;;;;5.50;4.60;;;;;;;;;;5011552;28;20192;-75
2022/06/04 06:32:49;;;;;;;5.17;4.73;;;;;;;;;;5011748;28;20196;-75
2022/06/04 06:35:16;;;;;;;7.37;4.40;;;;;;;;;;5011728;28;20671;-75
2022/06/04 06:37:43;;;;;;;4.97;4.47;;;;;;;;;;5017060;28;20218;-76
2022/06/04 06:40:11;;;;;;;7.80;4.67;;;;;;;;;;5031072;28;20199;-76
2022/06/04 06:42:40;;;;;;;4.97;4.40;;;;;;;;;;5031384;28;20256;-75
2022/06/04 06:45:09;;;;;;;6.20;4.73;;;;;;;;;;5011574;28;20204;-76
2022/06/04 06:47:36;;;;;;;5.60;4.27;;;;;;;;;;5011373;28;20707;-75
2022/06/04 06:50:05;;;;;;;9.03;5.03;;;;;;;;;;5010776;28;20203;-75
2022/06/04 06:52:32;;;;;;;6.70;4.37;;;;;;;;;;5011378;28;20188;-76
2022/06/04 06:54:59;;;;;;;6.67;4.50;;;;;;;;;;5012195;28;20207;-76
2022/06/04 06:57:26;;;;;;;6.57;4.00;;;;;;;;;;5011620;28;20200;-76
2022/06/04 06:59:54;;;;;;;4.50;4.10;;;;;;;;;;5011341;28;20207;-75
2022/06/04 07:02:21;;;;;;;7.03;3.90;;;;;;;;;;5011315;28;20308;-76
2022/06/04 07:04:48;;;;;;;5.73;4.20;;;;;;;;;;5011320;28;20207;-76
2022/06/04 07:07:15;;;;;;;7.07;4.10;;;;;;;;;;5010991;28;20227;-76
2022/06/04 07:09:44;;;;;;;7.47;4.93;;;;;;;;;;5010691;28;20679;-75
2022/06/04 07:12:12;;;;;;;4.97;4.13;;;;;;;;;;5010931;28;20202;-77
2022/06/04 07:14:40;;;;;;;7.93;4.60;;;;;;;;;;5029711;28;20211;-81
2022/06/04 07:17:08;;;;;;;6.90;4.67;;;;;;;;;;5030641;28;20195;-82
2022/06/04 07:19:35;;;;;;;7.83;4.77;;;;;;;;;;5029494;28;20232;-82
2022/06/04 07:22:03;;;;;;;5.43;4.93;;;;;;;;;;5030826;28;20252;-82
2022/06/04 07:24:30;;;;;;;5.83;4.67;;;;;;;;;;5030507;28;20230;-82
2022/06/04 07:26:57;;;;;;;8.20;4.07;;;;;;;;;;5030490;28;20223;-82
2022/06/04 07:29:26;;;;;;;7.30;4.57;;;;;;;;;;5030811;28;20665;-83
2022/06/04 07:31:53;;;;;;;4.57;4.17;;;;;;;;;;5030308;28;20231;-82
2022/06/04 07:34:21;;;;;;;8.13;5.20;;;;;;;;;;5030708;28;20195;-82
2022/06/04 07:36:48;;;;;;;10.98;4.78;;;;;;;;;;5029881;28;20206;-82
2022/06/04 07:39:18;;;;;;;10.45;4.15;;;;;;;;;;5010667;28;20239;-84
2022/06/04 07:41:46;;;;;;;4.88;4.30;;;;;;;;;;5010546;28;20206;-82
2022/06/04 07:44:15;;;;;;;4.20;3.80;;;;;;;;;;5013898;28;20247;-83
2022/06/04 07:46:44;;;;;;;7.85;4.20;;;;;;;;;;5030027;28;20317;-82
2022/06/04 07:49:12;;;;;;;4.65;4.28;;;;;;;;;;5027550;28;20211;-83
2022/06/04 07:51:41;;;;;;;4.47;4.07;;;;;;;;;;5010689;28;20263;-83
2022/06/04 07:54:09;;;;;;;4.55;4.10;;;;;;;;;;5011390;28;20204;-83
2022/06/04 07:56:36;;;;;;;5.68;4.07;;;;;;;;;;5010155;28;20260;-83
2022/06/04 07:59:04;;;;;;;4.97;4.07;;;;;;;;;;5010566;28;20286;-83
2022/06/04 08:01:31;;;;;;;7.18;4.22;;;;;;;;;;5010353;28;20227;-84
2022/06/04 08:03:59;;;;;;;5.82;3.58;;;;;;;;;;5010634;28;20613;-83
2022/06/04 08:06:26;;;;;;;5.82;4.25;;;;;;;;;;5010115;28;20219;-83
2022/06/04 08:08:56;;;;;;;4.82;4.15;;;;;;;;;;5010605;28;20621;-83
2022/06/04 08:11:32;;;;;;;10.90;4.45;;;;;;;;;;5010169;28;20285;-83
2022/06/04 08:14:00;;;;;;;4.28;3.90;;;;;;;;;;5010596;28;20187;-83
2022/06/04 08:16:27;;;;;;;4.40;3.40;;;;;;;;;;5010324;28;20240;-84
2022/06/04 08:18:54;;;;;;;3.83;3.53;;;;;;;;;;5010455;28;20639;-83
2022/06/04 08:21:22;;;;;;;4.50;4.00;;;;;;;;;;5010075;28;20196;-83
2022/06/04 08:23:49;;;;;;;4.32;3.97;;;;;;;;;;5010381;28;20241;-83
2022/06/04 08:26:18;;;;;;;4.90;4.15;;;;;;;;;;5010025;28;20191;-84
2022/06/04 08:28:45;;;;;;;5.85;4.22;;;;;;;;;;5010420;28;20204;-83
2022/06/04 08:31:14;;;;;;;4.68;4.28;;;;;;;;;;5009698;28;20210;-83
2022/06/04 08:33:42;;;;;;;4.65;4.25;;;;;;;;;;5010001;28;20671;-83
2022/06/04 08:36:10;;;;;;;7.53;4.32;;;;;;;;;;5009722;28;20294;-83
2022/06/04 08:38:38;;;;;;;4.88;3.47;;;;;;;;;;5010051;28;20199;-84
2022/06/04 08:41:07;;;;;;;4.30;3.70;;;;;;;;;;5009832;28;20233;-84
2022/06/04 08:43:44;;;;;;;4.90;4.40;;;;;;;;;;5009812;28;20208;-84
2022/06/04 08:46:14;;;;;;;5.25;4.28;;;;;;;;;;5010069;28;20315;-84
2022/06/04 08:48:41;;;;;;;4.00;3.45;;;;;;;;;;5010180;28;20252;-83
2022/06/04 08:51:19;;;;;;;4.22;3.58;;;;;;;;;;5009591;28;20235;-83
2022/06/04 08:53:50;;;;;;;3.60;3.30;;;;;;;;;;5009924;28;20245;-85
2022/06/04 08:59:16;;;;;;;6.05;3.97;;;;;;;;;;5010179;28;20198;-83
2022/06/04 09:01:47;;;;;;;5.63;3.55;;;;;;;;;;5009948;28;20199;-84
2022/06/04 09:04:25;;;;;;;4.63;3.22;;;;;;;;;;5009535;28;20195;-84
2022/06/04 09:06:58;;;;;;;4.13;3.72;;;;;;;;;;5009250;28;20207;-83
2022/06/04 09:09:30;;;;;;;4.35;3.92;;;;;;;;;;5009763;28;20191;-84
2022/06/04 09:12:01;;;;;;;8.48;3.90;;;;;;;;;;5009570;28;20590;-84
2022/06/04 09:14:36;;;;;;;3.92;3.55;;;;;;;;;;5009272;28;20187;-82
2022/06/04 09:17:05;;;;;;;4.80;4.40;;;;;;;;;;5009641;28;20183;-84
2022/06/04 09:19:35;;;;;;;4.25;3.85;;;;;;;;;;5009146;28;20207;-83
2022/06/04 09:22:04;;;;;;;4.50;3.85;;;;;;;;;;5009624;28;20253;-83
2022/06/04 09:24:31;;;;;;;4.72;3.85;;;;;;;;;;5009371;28;20278;-83
2022/06/04 09:27:07;;;;;;;6.00;4.22;;;;;;;;;;5009120;28;20284;-83
2022/06/04 09:29:56;;;;;;;4.15;3.50;;;;;;;;;;5009443;28;20244;-83
2022/06/04 09:32:44;;;;;;;8.38;3.72;;;;;;;;;;5009270;28;20188;-83
2022/06/04 09:35:11;;;;;;;4.85;3.70;;;;;;;;;;5008888;28;20223;-83
2022/06/04 09:37:43;;;;;;;4.93;3.85;;;;;;;;;;5009045;28;20257;-83
2022/06/04 09:40:19;;;;;;;4.03;3.72;;;;;;;;;;5009150;28;20194;-84
2022/06/04 09:42:46;;;;;;;4.07;3.67;;;;;;;;;;5009622;28;20227;-83
2022/06/04 09:45:22;;;;;;;4.85;3.70;;;;;;;;;;5012666;28;20552;-84
2022/06/04 09:47:52;;;;;;;4.15;3.80;;;;;;;;;;5012359;28;20219;-84
2022/06/04 09:50:24;;;;;;;4.57;3.97;;;;;;;;;;5012277;28;20232;-83
2022/06/04 09:53:03;;;;;;;5.28;4.32;;;;;;;;;;5012691;28;20194;-83
2022/06/04 09:55:33;;;;;;;4.85;3.80;;;;;;;;;;5012539;28;20287;-84
2022/06/04 09:58:01;;;;;;;4.50;4.10;;;;;;;;;;5012304;28;20664;-84
2022/06/04 10:00:31;;;;;;;7.40;4.53;;;;;;;;;;5012471;28;20199;-84
2022/06/04 10:03:01;;;;;;;3.80;3.47;;;;;;;;;;5012997;28;20199;-84
2022/06/04 10:05:30;;;;;;;6.82;3.85;;;;;;;;;;5011920;28;20235;-84
2022/06/04 10:07:57;;;;;;;4.13;3.42;;;;;;;;;;5012006;28;20818;-84
2022/06/04 10:10:30;;;;;;;6.35;3.47;;;;;;;;;;5012070;28;20199;-84
2022/06/04 10:15:44;;;;;;;5.75;3.63;;;;;;;;;;5027386;28;20202;-83
2022/06/04 10:18:24;;;;;;;3.40;3.10;;;;;;;;;;5012961;28;20683;-84
2022/06/04 10:20:57;;;;;;;4.18;3.47;;;;;;;;;;5028457;28;20210;-84
2022/06/04 10:23:25;;;;;;;7.28;3.95;;;;;;;;;;5031689;28;20651;-84
2022/06/04 10:26:07;;;;;;;5.70;3.42;;;;;;;;;;5031244;28;20199;-83
2022/06/04 10:28:43;;;;;;;3.70;3.40;;;;;;;;;;5030178;28;20215;-83
2022/06/04 10:31:20;;;;;;;3.45;3.17;;;;;;;;;;5023000;28;20234;-84
2022/06/04 10:33:53;;;;;;;7.55;3.58;;;;;;;;;;5012323;28;20286;-84
2022/06/04 10:36:34;;;;;;;3.58;3.28;;;;;;;;;;5011789;28;20188;-83
2022/06/04 10:39:11;;;;;;;3.95;3.58;;;;;;;;;;5012360;28;20636;-84
2022/06/04 10:41:44;;;;;;;3.20;2.90;;;;;;;;;;5022043;28;20230;-84
2022/06/04 10:44:35;;;;;;;6.05;3.30;;;;;;;;;;5031800;28;20270;-84
2022/06/04 10:47:20;;;;;;;6.90;3.80;;;;;;;;;;5018450;28;20755;-83
2022/06/04 10:50:19;;;;;;;3.63;3.33;;;;;;;;;;5011944;28;20188;-84
2022/06/04 10:52:49;;;;;;;6.13;3.30;;;;;;;;;;4977714;28;20207;-84
2022/06/04 10:55:24;;;;;;;3.58;3.33;;;;;;;;;;5010014;28;20183;-84
2022/06/04 10:58:02;;;;;;;5.53;3.92;;;;;;;;;;5011782;28;20232;-83
2022/06/04 11:00:32;;;;;;;5.57;3.72;;;;;;;;;;5011274;28;20184;-84
2022/06/04 11:03:04;;;;;;;4.10;3.22;;;;;;;;;;5011416;28;20207;-84
2022/06/04 11:05:34;;;;;;;5.10;3.78;;;;;;;;;;5015874;28;20252;-83
2022/06/04 11:08:05;;;;;;;6.82;3.53;;;;;;;;;;5031380;28;20284;-84
2022/06/04 11:10:34;;;;;;;6.70;4.25;;;;;;;;;;5030050;28;20252;-85
2022/06/04 11:13:09;;;;;;;5.93;3.80;;;;;;;;;;5030303;28;20248;-83
2022/06/04 11:15:41;;;;;;;6.72;3.75;;;;;;;;;;5030127;28;20191;-85
2022/06/04 11:18:14;;;;;;;5.43;3.92;;;;;;;;;;5030735;28;20236;-83
2022/06/04 11:20:48;;;;;;;3.95;3.55;;;;;;;;;;5030522;28;20191;-85
2022/06/04 11:23:25;;;;;;;7.38;3.92;;;;;;;;;;5030219;28;20601;-85
2022/06/04 11:25:55;;;;;;;6.38;3.70;;;;;;;;;;5030632;28;20672;-85
2022/06/04 11:28:26;;;;;;;5.00;3.38;;;;;;;;;;5030378;28;20741;-85
2022/06/04 11:30:59;;;;;;;5.30;3.88;;;;;;;;;;5030250;28;20222;-84
2022/06/04 11:33:34;;;;;;;3.53;3.20;;;;;;;;;;5030085;28;20183;-84
2022/06/04 11:36:05;;;;;;;3.80;3.50;;;;;;;;;;5029532;28;20182;-85
2022/06/04 11:38:56;;;;;;;3.65;3.35;;;;;;;;;;5030133;28;20179;-84
2022/06/04 11:41:31;;;;;;;3.30;3.10;;;;;;;;;;5029983;28;20183;-84
2022/06/04 11:44:15;;;;;;;3.85;3.50;;;;;;;;;;5030512;28;20618;-84
2022/06/04 11:46:50;;;;;;;3.90;3.60;;;;;;;;;;5030867;28;20267;-85
2022/06/04 11:49:29;;;;;;;4.57;4.18;;;;;;;;;;5030537;28;20214;-85
2022/06/04 11:52:18;;;;;;;6.93;4.20;;;;;;;;;;5030388;28;20270;-84
2022/06/04 11:54:56;;;;;;;4.82;3.55;;;;;;;;;;5030642;28;20266;-84
2022/06/04 11:57:30;;;;;;;7.72;4.15;;;;;;;;;;5030198;28;20647;-84
2022/06/04 12:00:12;;;;;;;5.47;3.90;;;;;;;;;;5030436;28;20183;-84
2022/06/04 12:02:47;;;;;;;4.13;3.70;;;;;;;;;;5030355;28;20198;-84
2022/06/04 12:05:25;;;;;;;4.35;3.90;;;;;;;;;;5030338;28;20716;-83
2022/06/04 12:07:54;;;;;;;5.05;3.47;;;;;;;;;;5029915;28;20207;-84
2022/06/04 12:10:26;;;;;;;6.07;3.78;;;;;;;;;;5030236;28;20198;-84
2022/06/04 12:13:02;;;;;;;4.05;3.75;;;;;;;;;;5030146;28;20187;-85
2022/06/04 12:15:36;;;;;;;5.00;3.60;;;;;;;;;;5030206;28;20609;-84
2022/06/04 12:18:06;;;;;;;3.60;3.30;;;;;;;;;;5030537;28;20183;-84
2022/06/04 12:26:25;;;;;;;4.25;3.38;;;;;;;;;;5017443;28;20748;-84
2022/06/04 12:28:53;;;;;;;3.88;3.58;;;;;;;;;;5029871;28;20210;-84
2022/06/04 12:31:34;;;;;;;5.40;3.42;;;;;;;;;;5029911;28;20198;-84
2022/06/04 12:34:02;;;;;;;4.95;3.60;;;;;;;;;;5029543;28;20191;-84
2022/06/04 12:36:34;;;;;;;4.25;3.25;;;;;;;;;;5029501;28;20202;-84
2022/06/04 12:39:04;;;;;;;4.50;3.55;;;;;;;;;;5029762;28;20187;-84
2022/06/04 12:41:43;;;;;;;4.32;3.60;;;;;;;;;;5029409;28;20183;-85
2022/06/04 12:44:21;;;;;;;5.97;4.00;;;;;;;;;;5029566;28;20182;-84
2022/06/04 12:46:48;;;;;;;4.30;3.50;;;;;;;;;;5029654;28;20187;-84
2022/06/04 12:49:36;;;;;;;4.30;3.92;;;;;;;;;;5029574;28;20223;-84
2022/06/04 12:52:23;;;;;;;4.25;3.78;;;;;;;;;;5017146;28;20234;-84
2022/06/04 12:54:52;;;;;;;5.15;4.45;;;;;;;;;;5009959;28;20294;-84
2022/06/04 12:57:35;;;;;;;5.75;4.65;;;;;;;;;;5012781;28;20635;-83
2022/06/04 13:00:34;;;;;;;4.10;3.58;;;;;;;;;;5021423;28;20199;-83
2022/06/04 13:03:27;;;;;;;3.92;3.58;;;;;;;;;;5002336;28;20663;-84
2022/06/04 13:06:04;;;;;;;4.18;3.78;;;;;;;;;;5022519;28;20203;-83
2022/06/04 13:08:37;;;;;;;5.93;3.90;;;;;;;;;;5023506;28;20222;-84
2022/06/04 13:11:15;;;;;;;4.72;4.25;;;;;;;;;;5019531;28;20195;-85
2022/06/04 13:13:49;;;;;;;4.13;3.30;;;;;;;;;;5015555;28;20221;-86
2022/06/04 13:16:19;;;;;;;4.28;3.28;;;;;;;;;;5018551;28;20691;-84
2022/06/04 13:18:55;;;;;;;5.00;3.92;;;;;;;;;;5016682;28;20202;-85
2022/06/04 13:21:22;;;;;;;4.45;3.92;;;;;;;;;;5016349;28;20199;-86
2022/06/04 13:23:56;;;;;;;4.53;4.15;;;;;;;;;;5020745;28;20199;-86
2022/06/04 13:26:31;;;;;;;4.28;3.83;;;;;;;;;;5029386;28;20182;-86
2022/06/04 13:28:59;;;;;;;4.95;3.90;;;;;;;;;;5028966;28;20237;-86
2022/06/04 13:31:28;;;;;;;4.90;3.90;;;;;;;;;;5014233;28;20200;-86
2022/06/04 13:33:58;;;;;;;5.10;4.60;;;;;;;;;;5017507;28;20191;-86
2022/06/04 13:36:27;;;;;;;4.50;3.90;;;;;;;;;;5024639;28;20194;-86
2022/06/04 13:38:57;;;;;;;4.93;4.32;;;;;;;;;;5029418;28;20255;-86
2022/06/04 13:44:17;;;;;;;6.03;4.13;;;;;;;;;;5026158;28;20201;-85
2022/06/04 13:46:44;;;;;;;10.07;4.72;;;;;;;;;;5028916;28;20187;-86
2022/06/04 13:49:12;;;;;;;6.25;4.32;;;;;;;;;;5029251;28;20226;-85
2022/06/04 13:51:43;;;;;;;5.00;3.70;;;;;;;;;;5028393;28;20239;-86
2022/06/04 13:54:23;;;;;;;4.57;4.20;;;;;;;;;;5009768;28;20215;-87
2022/06/04 13:56:51;;;;;;;12.40;4.25;;;;;;;;;;5009071;28;20244;-85
2022/06/04 13:59:25;;;;;;;4.53;4.13;;;;;;;;;;5009515;28;20287;-86
2022/06/04 14:01:57;;;;;;;5.72;4.15;;;;;;;;;;5009274;28;20187;-86
2022/06/04 14:07:12;;;;;;;4.47;4.07;;;;;;;;;;5009558;28;20194;-86
2022/06/04 14:09:42;;;;;;;5.03;4.50;;;;;;;;;;5008755;28;20256;-87
2022/06/04 14:12:15;;;;;;;5.25;3.80;;;;;;;;;;5008835;28;20621;-86
2022/06/04 14:14:59;;;;;;;5.55;4.30;;;;;;;;;;5009286;28;20191;-87
2022/06/04 14:17:39;;;;;;;4.75;4.15;;;;;;;;;;5009448;28;20560;-85
2022/06/04 14:20:16;;;;;;;5.05;4.55;;;;;;;;;;5008823;28;20733;-86
2022/06/04 14:22:49;;;;;;;5.07;4.53;;;;;;;;;;5008728;28;20713;-86
2022/06/04 14:25:23;;;;;;;5.65;4.47;;;;;;;;;;5008519;28;20245;-86
2022/06/04 14:27:58;;;;;;;5.95;4.13;;;;;;;;;;5008781;28;20701;-86
2022/06/04 14:30:29;;;;;;;6.28;4.20;;;;;;;;;;5011673;28;20241;-87
2022/06/04 14:32:56;;;;;;;4.38;4.00;;;;;;;;;;5011938;28;20680;-86
2022/06/04 14:35:29;;;;;;;4.82;4.43;;;;;;;;;;5012205;28;20203;-85
2022/06/04 14:38:00;;;;;;;4.40;4.03;;;;;;;;;;5016954;28;20230;-85
2022/06/04 14:40:36;;;;;;;5.70;4.25;;;;;;;;;;5031727;28;20620;-85
2022/06/04 14:43:35;;;;;;;5.57;4.03;;;;;;;;;;5031497;28;20183;-87
2022/06/04 14:46:14;;;;;;;9.27;4.43;;;;;;;;;;5012252;28;20191;-86
2022/06/04 14:49:10;;;;;;;5.05;4.55;;;;;;;;;;5011877;28;20614;-85
2022/06/04 14:52:03;;;;;;;6.80;4.57;;;;;;;;;;5011920;28;20765;-84
2022/06/04 14:54:30;;;;;;;6.65;4.15;;;;;;;;;;5011825;28;20240;-85
2022/06/04 14:57:19;;;;;;;8.90;4.80;;;;;;;;;;5013507;28;20565;-86
2022/06/04 15:00:08;;;;;;;7.05;4.82;;;;;;;;;;5031435;28;20244;-85
2022/06/04 15:02:50;;;;;;;4.43;4.03;;;;;;;;;;5031134;28;20278;-85
2022/06/04 15:05:32;;;;;;;5.32;4.63;;;;;;;;;;5031471;28;20186;-83
2022/06/04 15:08:27;;;;;;;5.25;4.32;;;;;;;;;;5030994;28;20205;-84
2022/06/04 15:11:07;;;;;;;5.60;4.00;;;;;;;;;;4999725;28;20268;-85
2022/06/04 15:13:41;;;;;;;5.93;4.82;;;;;;;;;;5011291;28;20256;-84
2022/06/04 15:16:11;;;;;;;8.02;4.43;;;;;;;;;;5011250;28;20649;-84
2022/06/04 15:19:06;;;;;;;4.90;4.45;;;;;;;;;;5011432;28;20184;-85
2022/06/04 15:21:43;;;;;;;4.65;4.10;;;;;;;;;;5019318;28;20647;-84
2022/06/04 15:24:24;;;;;;;6.35;4.75;;;;;;;;;;5011165;28;20194;-84
2022/06/04 15:26:55;;;;;;;5.90;4.82;;;;;;;;;;5011187;28;20191;-84
2022/06/04 15:35:02;;;;;;;9.90;5.47;;;;;;;;;;5022239;28;20212;-82
2022/06/04 15:37:32;;;;;;;8.63;5.85;;;;;;;;;;5011147;28;20199;-82
2022/06/04 15:40:07;;;;;;;8.55;6.05;;;;;;;;;;5010871;28;20207;-82
2022/06/04 15:42:44;;;;;;;9.23;6.85;;;;;;;;;;5010406;28;20544;-82
2022/06/04 15:45:22;;;;;;;6.90;6.28;;;;;;;;;;5010563;28;20241;-82
2022/06/04 15:47:53;;;;;;;9.57;6.33;;;;;;;;;;5010789;28;20248;-82